Time;durP1;ratioP1;P1;durP2;ratioP2;P2;SDS_P1;SDS_P2;PMS_P1;PMS_P2;Temp;Humidity;BMP_temperature;BMP_pressure;BME280_temperature;BME280_humidity;BME280_pressure;Samples;Min_cycle;Max_cycle;Signal;HPM_P1;HPM_P2
2023/03/04 00:01:52;;;;;;;62.78;26.65;;;;;;;;;;5048076;28;20095;-69
2023/03/04 00:04:18;;;;;;;54.33;25.02;;;;;;;;;;5047868;28;20037;-69
2023/03/04 00:06:44;;;;;;;57.88;27.05;;;;;;;;;;5046265;28;20041;-68
2023/03/04 00:09:09;;;;;;;51.72;25.73;;;;;;;;;;5048295;28;20104;-69
2023/03/04 00:11:35;;;;;;;51.80;25.13;;;;;;;;;;5046521;28;20128;-68
2023/03/04 00:14:01;;;;;;;61.35;27.02;;;;;;;;;;5034218;28;20033;-68
2023/03/04 00:16:27;;;;;;;53.65;25.38;;;;;;;;;;5046410;28;20032;-68
2023/03/04 00:18:56;;;;;;;60.33;26.48;;;;;;;;;;5046809;28;20070;-69
2023/03/04 00:21:21;;;;;;;60.72;27.45;;;;;;;;;;5047446;28;20029;-69
2023/03/04 00:23:47;;;;;;;61.03;27.75;;;;;;;;;;5045714;28;20044;-69
2023/03/04 00:26:13;;;;;;;61.53;27.35;;;;;;;;;;5047290;28;20104;-69
2023/03/04 00:28:41;;;;;;;55.03;24.88;;;;;;;;;;5034026;28;20035;-69
2023/03/04 00:31:08;;;;;;;64.70;28.05;;;;;;;;;;5027805;28;20032;-68
2023/03/04 00:33:34;;;;;;;55.70;24.15;;;;;;;;;;5029245;28;20037;-68
2023/03/04 00:36:00;;;;;;;54.97;26.20;;;;;;;;;;5028787;28;20468;-69
2023/03/04 00:38:27;;;;;;;55.35;26.58;;;;;;;;;;5045908;28;20044;-68
2023/03/04 00:40:53;;;;;;;59.65;26.15;;;;;;;;;;5045002;28;20037;-68
2023/03/04 00:43:19;;;;;;;58.47;27.15;;;;;;;;;;5046896;28;20033;-69
2023/03/04 00:45:44;;;;;;;48.25;25.17;;;;;;;;;;5047471;28;20555;-68
2023/03/04 00:48:10;;;;;;;55.03;25.90;;;;;;;;;;5028661;28;20040;-68
2023/03/04 00:50:36;;;;;;;66.82;26.25;;;;;;;;;;5044454;28;20036;-68
2023/03/04 00:53:02;;;;;;;51.58;27.20;;;;;;;;;;5047027;28;20632;-68
2023/03/04 00:55:27;;;;;;;55.15;27.25;;;;;;;;;;5029099;28;20076;-68
2023/03/04 00:57:53;;;;;;;56.38;24.77;;;;;;;;;;5025844;28;20131;-69
2023/03/04 01:00:19;;;;;;;57.33;26.40;;;;;;;;;;5028671;28;20504;-68
2023/03/04 01:02:45;;;;;;;57.25;26.33;;;;;;;;;;5028679;28;20106;-69
2023/03/04 01:05:10;;;;;;;53.33;25.77;;;;;;;;;;5028026;28;20400;-69
2023/03/04 01:07:36;;;;;;;59.38;26.55;;;;;;;;;;5024975;28;20037;-69
2023/03/04 01:10:02;;;;;;;54.97;25.65;;;;;;;;;;5045780;28;20258;-69
2023/03/04 01:12:28;;;;;;;57.20;25.23;;;;;;;;;;5046598;28;20243;-68
2023/03/04 01:14:53;;;;;;;58.55;25.70;;;;;;;;;;5029686;28;20099;-67
2023/03/04 01:17:19;;;;;;;60.00;27.13;;;;;;;;;;5027600;28;20033;-69
2023/03/04 01:19:45;;;;;;;56.05;25.63;;;;;;;;;;5027442;28;20049;-69
2023/03/04 01:22:12;;;;;;;54.45;26.35;;;;;;;;;;5028039;28;20033;-69
2023/03/04 01:24:38;;;;;;;55.00;26.92;;;;;;;;;;5046798;28;20501;-67
2023/03/04 01:27:05;;;;;;;59.00;26.52;;;;;;;;;;5026500;28;20036;-67
2023/03/04 01:29:30;;;;;;;50.30;25.45;;;;;;;;;;5033997;28;20032;-68
2023/03/04 01:31:56;;;;;;;55.67;26.35;;;;;;;;;;5061992;28;20029;-67
2023/03/04 01:34:24;;;;;;;56.13;25.25;;;;;;;;;;5047155;28;20246;-69
2023/03/04 01:36:49;;;;;;;51.45;26.42;;;;;;;;;;5014258;28;20622;-69
2023/03/04 01:39:17;;;;;;;55.17;26.40;;;;;;;;;;5047096;28;20037;-68
2023/03/04 01:41:43;;;;;;;61.90;26.70;;;;;;;;;;5061479;28;20139;-69
2023/03/04 01:44:09;;;;;;;69.38;27.23;;;;;;;;;;5045302;28;20099;-69
2023/03/04 01:46:36;;;;;;;59.03;25.05;;;;;;;;;;5045748;28;20040;-68
2023/03/04 01:49:01;;;;;;;51.92;26.58;;;;;;;;;;5027177;28;20048;-68
2023/03/04 01:51:27;;;;;;;57.20;25.83;;;;;;;;;;5025917;28;20033;-68
2023/03/04 01:53:53;;;;;;;52.95;25.67;;;;;;;;;;5045951;28;20489;-68
2023/03/04 01:56:29;;;;;;;63.33;26.63;;;;;;;;;;5045506;28;20563;-68
2023/03/04 01:59:16;;;;;;;48.17;24.33;;;;;;;;;;5027364;28;20395;-68
2023/03/04 02:01:47;;;;;;;54.17;24.55;;;;;;;;;;5043343;28;20558;-69
2023/03/04 02:04:15;;;;;;;57.05;25.73;;;;;;;;;;5027413;28;20045;-69
2023/03/04 02:06:42;;;;;;;55.45;26.38;;;;;;;;;;5027461;28;20724;-68
2023/03/04 02:09:08;;;;;;;55.40;26.80;;;;;;;;;;5043409;28;20037;-68
2023/03/04 02:11:35;;;;;;;53.45;26.08;;;;;;;;;;5027769;28;20040;-69
2023/03/04 02:14:00;;;;;;;57.80;26.90;;;;;;;;;;5061622;28;20079;-68
2023/03/04 02:16:26;;;;;;;49.45;25.73;;;;;;;;;;5024446;28;20558;-69
2023/03/04 02:18:52;;;;;;;60.85;27.30;;;;;;;;;;5044083;28;20033;-69
2023/03/04 02:21:30;;;;;;;53.13;25.52;;;;;;;;;;5045634;28;20060;-67
2023/03/04 02:24:18;;;;;;;51.30;25.77;;;;;;;;;;5024660;28;20120;-68
2023/03/04 02:26:45;;;;;;;55.00;26.73;;;;;;;;;;5026617;28;20033;-68
2023/03/04 02:29:14;;;;;;;62.70;27.33;;;;;;;;;;5027343;28;20488;-68
2023/03/04 02:31:43;;;;;;;62.30;27.02;;;;;;;;;;5027184;28;20032;-69
2023/03/04 02:34:19;;;;;;;63.65;29.08;;;;;;;;;;5058650;28;20032;-69
2023/03/04 02:36:47;;;;;;;67.57;26.13;;;;;;;;;;5026335;28;20075;-68
2023/03/04 02:39:19;;;;;;;57.25;25.20;;;;;;;;;;5027347;28;20622;-69
2023/03/04 02:41:47;;;;;;;64.20;27.90;;;;;;;;;;5025854;28;20452;-67
2023/03/04 02:44:28;;;;;;;52.58;26.63;;;;;;;;;;5027048;28;20799;-68
2023/03/04 02:46:55;;;;;;;55.97;26.58;;;;;;;;;;5027216;28;20569;-68
2023/03/04 02:49:22;;;;;;;72.07;31.13;;;;;;;;;;5045152;28;20091;-68
2023/03/04 02:51:57;;;;;;;53.13;26.85;;;;;;;;;;5025983;28;20064;-68
2023/03/04 02:54:23;;;;;;;66.65;28.55;;;;;;;;;;5043649;28;20108;-69
2023/03/04 02:56:54;;;;;;;65.47;29.02;;;;;;;;;;5060769;28;20045;-69
2023/03/04 02:59:22;;;;;;;52.75;25.40;;;;;;;;;;5057521;28;20647;-69
2023/03/04 03:01:48;;;;;;;66.63;28.35;;;;;;;;;;5027460;28;20620;-68
2023/03/04 03:04:15;;;;;;;53.70;24.27;;;;;;;;;;5044922;28;20040;-69
2023/03/04 03:06:42;;;;;;;51.33;24.73;;;;;;;;;;5026891;28;20107;-67
2023/03/04 03:09:08;;;;;;;55.80;25.23;;;;;;;;;;5024790;28;20108;-68
2023/03/04 03:11:34;;;;;;;58.13;27.23;;;;;;;;;;5060165;28;20086;-68
2023/03/04 03:14:00;;;;;;;57.38;25.77;;;;;;;;;;5023700;28;20714;-68
2023/03/04 03:16:25;;;;;;;54.47;25.08;;;;;;;;;;5022513;28;20140;-67
2023/03/04 03:18:51;;;;;;;60.85;27.17;;;;;;;;;;5026786;28;20717;-69
2023/03/04 03:21:16;;;;;;;69.47;28.42;;;;;;;;;;5054036;28;20124;-68
2023/03/04 03:23:43;;;;;;;56.42;26.65;;;;;;;;;;5025728;28;20489;-69
2023/03/04 03:26:09;;;;;;;58.03;27.10;;;;;;;;;;5031504;28;20044;-68
2023/03/04 03:28:35;;;;;;;61.92;25.38;;;;;;;;;;5043656;28;20037;-68
2023/03/04 03:31:00;;;;;;;62.15;26.95;;;;;;;;;;5029032;28;20042;-68
2023/03/04 03:33:26;;;;;;;61.22;27.25;;;;;;;;;;5048587;28;20029;-68
2023/03/04 03:35:52;;;;;;;60.13;25.95;;;;;;;;;;5027122;28;20373;-68
2023/03/04 03:38:17;;;;;;;55.40;23.13;;;;;;;;;;5048531;28;20045;-68
2023/03/04 03:40:43;;;;;;;55.78;25.15;;;;;;;;;;5048681;28;20075;-68
2023/03/04 03:43:08;;;;;;;63.97;26.52;;;;;;;;;;5048858;28;20036;-68
2023/03/04 03:45:34;;;;;;;51.53;25.15;;;;;;;;;;5044128;28;20411;-68
2023/03/04 03:47:59;;;;;;;58.05;24.30;;;;;;;;;;5048130;28;20754;-68
2023/03/04 03:50:25;;;;;;;54.03;25.83;;;;;;;;;;5047941;28;20033;-68
2023/03/04 03:52:51;;;;;;;56.50;25.70;;;;;;;;;;5048505;28;20043;-68
2023/03/04 03:55:16;;;;;;;58.90;25.80;;;;;;;;;;5046510;28;20499;-68
2023/03/04 03:57:42;;;;;;;55.45;25.40;;;;;;;;;;5047815;28;20040;-68
2023/03/04 04:00:08;;;;;;;53.33;24.75;;;;;;;;;;5047877;28;20048;-68
2023/03/04 04:02:40;;;;;;;56.95;25.35;;;;;;;;;;5045574;28;20487;-68
2023/03/04 04:05:06;;;;;;;53.63;24.40;;;;;;;;;;5042928;28;20127;-68
2023/03/04 04:07:32;;;;;;;56.72;24.48;;;;;;;;;;5039159;28;20029;-68
2023/03/04 04:09:58;;;;;;;58.60;26.58;;;;;;;;;;5034743;28;20112;-68
2023/03/04 04:12:24;;;;;;;58.03;26.17;;;;;;;;;;5037225;28;20021;-68
2023/03/04 04:14:49;;;;;;;58.25;24.83;;;;;;;;;;5047346;28;20051;-68
2023/03/04 04:17:15;;;;;;;59.25;25.25;;;;;;;;;;5041196;28;20048;-67
2023/03/04 04:19:41;;;;;;;53.00;24.35;;;;;;;;;;5031744;28;20075;-67
2023/03/04 04:22:12;;;;;;;59.05;25.20;;;;;;;;;;5041138;28;20061;-67
2023/03/04 04:24:37;;;;;;;48.75;23.10;;;;;;;;;;5047948;28;20037;-67
2023/03/04 04:27:03;;;;;;;53.58;24.60;;;;;;;;;;5047912;28;20047;-68
2023/03/04 04:29:29;;;;;;;61.92;25.60;;;;;;;;;;5047452;28;20044;-68
2023/03/04 04:31:55;;;;;;;49.75;23.10;;;;;;;;;;5048118;28;20032;-67
2023/03/04 04:34:20;;;;;;;50.95;22.23;;;;;;;;;;5047961;28;20508;-66
2023/03/04 04:36:46;;;;;;;48.05;22.13;;;;;;;;;;5048047;28;20497;-66
2023/03/04 04:39:11;;;;;;;59.65;23.88;;;;;;;;;;5045341;28;20041;-68
2023/03/04 04:41:40;;;;;;;53.58;22.90;;;;;;;;;;5046190;28;20036;-68
2023/03/04 04:44:07;;;;;;;50.05;24.40;;;;;;;;;;5047176;28;20086;-68
2023/03/04 04:46:32;;;;;;;49.85;25.02;;;;;;;;;;5047273;28;20086;-66
2023/03/04 04:48:58;;;;;;;52.63;22.80;;;;;;;;;;5042183;28;20523;-68
2023/03/04 04:51:24;;;;;;;52.78;23.10;;;;;;;;;;5046904;28;20029;-68
2023/03/04 04:53:50;;;;;;;50.25;22.63;;;;;;;;;;5047370;28;20150;-68
2023/03/04 04:56:19;;;;;;;48.30;23.20;;;;;;;;;;5043933;28;20476;-68
2023/03/04 04:58:46;;;;;;;53.83;23.42;;;;;;;;;;5046547;28;20108;-68
2023/03/04 05:01:12;;;;;;;50.72;22.85;;;;;;;;;;5047179;28;20060;-68
2023/03/04 05:03:39;;;;;;;51.33;22.73;;;;;;;;;;5046001;28;20033;-68
2023/03/04 05:06:06;;;;;;;47.85;22.05;;;;;;;;;;5045458;28;20039;-68
2023/03/04 05:08:32;;;;;;;43.78;21.13;;;;;;;;;;5046042;28;20611;-68
2023/03/04 05:10:58;;;;;;;53.35;22.75;;;;;;;;;;5047432;28;20058;-68
2023/03/04 05:13:23;;;;;;;51.35;23.27;;;;;;;;;;5044685;28;20507;-69
2023/03/04 05:15:54;;;;;;;54.00;23.42;;;;;;;;;;5039097;28;20678;-69
2023/03/04 05:18:20;;;;;;;49.05;22.45;;;;;;;;;;5046667;28;20531;-69
2023/03/04 05:20:54;;;;;;;110.50;46.38;;;;;;;;;;5046223;28;20051;-68
2023/03/04 05:23:20;;;;;;;59.00;24.85;;;;;;;;;;5043845;28;20052;-68
2023/03/04 05:25:46;;;;;;;51.45;24.30;;;;;;;;;;5042596;28;20041;-68
2023/03/04 05:28:12;;;;;;;52.70;25.83;;;;;;;;;;5043237;28;20488;-67
2023/03/04 05:30:39;;;;;;;49.92;22.83;;;;;;;;;;5045093;28;20047;-67
2023/03/04 05:33:07;;;;;;;46.53;22.30;;;;;;;;;;5046846;28;20064;-67
2023/03/04 05:35:35;;;;;;;48.20;22.10;;;;;;;;;;5044235;28;20167;-67
2023/03/04 05:38:02;;;;;;;45.85;22.10;;;;;;;;;;5044399;28;20025;-67
2023/03/04 05:40:28;;;;;;;53.70;21.17;;;;;;;;;;5046259;28;20025;-67
2023/03/04 05:42:53;;;;;;;51.67;22.40;;;;;;;;;;5046821;28;20036;-67
2023/03/04 05:45:19;;;;;;;52.03;23.63;;;;;;;;;;5047272;28;20039;-68
2023/03/04 05:47:44;;;;;;;53.50;24.80;;;;;;;;;;5046206;28;20043;-66
2023/03/04 05:50:11;;;;;;;45.13;22.08;;;;;;;;;;5045765;28;20033;-66
2023/03/04 05:52:36;;;;;;;51.13;22.48;;;;;;;;;;5045805;28;20491;-66
2023/03/04 05:55:02;;;;;;;51.47;22.58;;;;;;;;;;5045205;28;20033;-67
2023/03/04 05:57:28;;;;;;;56.80;23.30;;;;;;;;;;5045734;28;20033;-69
2023/03/04 05:59:53;;;;;;;51.55;23.50;;;;;;;;;;5045691;28;20044;-66
2023/03/04 06:02:19;;;;;;;48.63;22.17;;;;;;;;;;5045884;28;20041;-67
2023/03/04 06:04:44;;;;;;;42.30;21.05;;;;;;;;;;5044024;28;20044;-67
2023/03/04 06:07:10;;;;;;;54.05;22.80;;;;;;;;;;5048800;28;20052;-66
2023/03/04 06:09:36;;;;;;;43.75;22.48;;;;;;;;;;5058823;28;20044;-67
2023/03/04 06:12:01;;;;;;;44.92;23.25;;;;;;;;;;5058062;28;20037;-68
2023/03/04 06:14:27;;;;;;;60.05;25.65;;;;;;;;;;5032360;28;20042;-68
2023/03/04 06:16:52;;;;;;;81.88;29.48;;;;;;;;;;5053101;28;20036;-68
2023/03/04 06:19:18;;;;;;;72.20;27.90;;;;;;;;;;5048811;28;20690;-69
2023/03/04 06:21:43;;;;;;;63.70;25.77;;;;;;;;;;5045498;28;20489;-66
2023/03/04 06:24:09;;;;;;;70.30;25.05;;;;;;;;;;5044535;28;20660;-67
2023/03/04 06:26:34;;;;;;;55.45;23.00;;;;;;;;;;5046816;28;20772;-66
2023/03/04 06:29:00;;;;;;;54.92;21.50;;;;;;;;;;5042148;28;20029;-66
2023/03/04 06:31:26;;;;;;;51.25;22.40;;;;;;;;;;5045042;28;20129;-66
2023/03/04 06:33:51;;;;;;;46.88;22.23;;;;;;;;;;5046437;28;20033;-68
2023/03/04 06:36:17;;;;;;;67.20;23.35;;;;;;;;;;5047023;28;20060;-69
2023/03/04 06:38:44;;;;;;;49.35;22.92;;;;;;;;;;5045463;28;20033;-68
2023/03/04 06:41:11;;;;;;;54.72;22.08;;;;;;;;;;5046678;28;20060;-68
2023/03/04 06:43:37;;;;;;;45.97;22.92;;;;;;;;;;5047276;28;20040;-66
2023/03/04 06:46:04;;;;;;;56.08;23.73;;;;;;;;;;5047424;28;20041;-68
2023/03/04 06:48:30;;;;;;;46.42;21.48;;;;;;;;;;5044914;28;20041;-67
2023/03/04 06:50:56;;;;;;;51.72;22.83;;;;;;;;;;5045729;28;20384;-68
2023/03/04 06:53:21;;;;;;;55.13;23.38;;;;;;;;;;5046801;28;20029;-67
2023/03/04 06:55:48;;;;;;;71.95;27.42;;;;;;;;;;5044474;28;20048;-68
2023/03/04 06:58:16;;;;;;;69.22;27.40;;;;;;;;;;5045465;28;20067;-68
2023/03/04 07:00:43;;;;;;;61.97;25.30;;;;;;;;;;5045031;28;20186;-69
2023/03/04 07:03:11;;;;;;;68.40;26.52;;;;;;;;;;5047679;28;20029;-67
2023/03/04 07:05:37;;;;;;;67.22;26.52;;;;;;;;;;5046088;28;20083;-68
2023/03/04 07:08:02;;;;;;;73.45;26.73;;;;;;;;;;5050560;28;20826;-67
2023/03/04 07:10:28;;;;;;;62.92;25.98;;;;;;;;;;5050624;28;20040;-66
2023/03/04 07:12:53;;;;;;;71.38;30.92;;;;;;;;;;5048434;28;20391;-69
2023/03/04 07:15:19;;;;;;;62.25;27.17;;;;;;;;;;5050680;28;20048;-66
2023/03/04 07:17:44;;;;;;;64.63;26.20;;;;;;;;;;5050114;28;20480;-68
2023/03/04 07:20:11;;;;;;;51.80;23.85;;;;;;;;;;5048594;28;20668;-67
2023/03/04 07:22:36;;;;;;;59.67;23.50;;;;;;;;;;5047311;28;20032;-67
2023/03/04 07:25:03;;;;;;;57.08;24.08;;;;;;;;;;5050739;28;20040;-68
2023/03/04 07:27:28;;;;;;;61.58;23.77;;;;;;;;;;5050776;28;20029;-67
2023/03/04 07:29:54;;;;;;;41.03;19.35;;;;;;;;;;5048325;28;20086;-68
2023/03/04 07:32:19;;;;;;;53.55;23.30;;;;;;;;;;5050571;28;20078;-68
2023/03/04 07:34:45;;;;;;;58.03;22.20;;;;;;;;;;5049999;28;20037;-68
2023/03/04 07:37:11;;;;;;;57.38;23.75;;;;;;;;;;5049771;28;20408;-68
2023/03/04 07:39:36;;;;;;;57.75;24.23;;;;;;;;;;5048033;28;20523;-66
2023/03/04 07:42:02;;;;;;;57.58;22.35;;;;;;;;;;5050084;28;20480;-66
2023/03/04 07:44:27;;;;;;;55.58;23.52;;;;;;;;;;5050633;28;20040;-66
2023/03/04 07:46:53;;;;;;;52.53;22.27;;;;;;;;;;5047815;28;20048;-68
2023/03/04 07:49:19;;;;;;;50.25;21.20;;;;;;;;;;5049223;28;20435;-67
2023/03/04 07:51:44;;;;;;;47.50;21.70;;;;;;;;;;5049960;28;20041;-66
2023/03/04 07:54:10;;;;;;;52.72;21.38;;;;;;;;;;5049762;28;20072;-66
2023/03/04 07:56:35;;;;;;;68.97;26.35;;;;;;;;;;5047942;28;20040;-65
2023/03/04 07:59:02;;;;;;;55.45;21.95;;;;;;;;;;5049223;28;20223;-66
2023/03/04 08:01:33;;;;;;;60.78;23.42;;;;;;;;;;5050324;28;20113;-66
2023/03/04 08:03:59;;;;;;;56.25;23.77;;;;;;;;;;5038325;28;20504;-66
2023/03/04 08:06:28;;;;;;;62.95;25.15;;;;;;;;;;5048825;28;20040;-67
2023/03/04 08:08:59;;;;;;;57.40;22.67;;;;;;;;;;5048077;28;20051;-67
2023/03/04 08:11:26;;;;;;;48.65;21.17;;;;;;;;;;5049255;28;20063;-66
2023/03/04 08:13:53;;;;;;;54.03;23.00;;;;;;;;;;5047100;28;20064;-66
2023/03/04 08:16:19;;;;;;;54.75;20.83;;;;;;;;;;5049009;28;20029;-66
2023/03/04 08:18:48;;;;;;;48.53;20.75;;;;;;;;;;5031157;28;20112;-67
2023/03/04 08:21:18;;;;;;;36.60;16.73;;;;;;;;;;5029557;28;20047;-67
2023/03/04 08:23:44;;;;;;;56.05;22.65;;;;;;;;;;5048006;28;20041;-66
2023/03/04 08:26:13;;;;;;;55.42;23.05;;;;;;;;;;5048454;28;20041;-68
2023/03/04 08:28:39;;;;;;;61.45;22.30;;;;;;;;;;5047280;28;20041;-68
2023/03/04 08:31:05;;;;;;;57.53;19.48;;;;;;;;;;5048356;28;20090;-68
2023/03/04 08:33:32;;;;;;;46.65;19.25;;;;;;;;;;5047008;28;20037;-66
2023/03/04 08:35:58;;;;;;;54.67;22.05;;;;;;;;;;5048443;28;20471;-68
2023/03/04 08:38:25;;;;;;;61.00;24.30;;;;;;;;;;5046778;28;20041;-68
2023/03/04 08:40:55;;;;;;;55.13;19.67;;;;;;;;;;5048416;28;20028;-68
2023/03/04 08:43:21;;;;;;;62.55;26.00;;;;;;;;;;5048163;28;20036;-66
2023/03/04 08:45:47;;;;;;;28.50;12.98;;;;;;;;;;5046134;28;20047;-68
2023/03/04 08:48:12;;;;;;;63.78;21.67;;;;;;;;;;5047665;28;20033;-68
2023/03/04 08:50:38;;;;;;;59.90;23.65;;;;;;;;;;5029461;28;20037;-68
2023/03/04 08:53:03;;;;;;;69.55;23.27;;;;;;;;;;5048534;28;20045;-66
2023/03/04 08:55:29;;;;;;;55.10;21.05;;;;;;;;;;5045768;28;20025;-67
2023/03/04 08:57:54;;;;;;;58.20;21.65;;;;;;;;;;5047799;28;20451;-66
2023/03/04 09:00:21;;;;;;;55.28;21.63;;;;;;;;;;5047818;28;20094;-67
2023/03/04 09:02:46;;;;;;;47.08;19.23;;;;;;;;;;5046229;28;20040;-67
2023/03/04 09:05:12;;;;;;;51.47;23.08;;;;;;;;;;5045965;28;20078;-66
2023/03/04 09:07:37;;;;;;;51.63;20.25;;;;;;;;;;5028685;28;20131;-66
2023/03/04 09:10:04;;;;;;;53.35;19.02;;;;;;;;;;5047035;28;20403;-66
2023/03/04 09:12:30;;;;;;;50.88;22.50;;;;;;;;;;5045191;28;20048;-67
2023/03/04 09:14:55;;;;;;;46.28;20.73;;;;;;;;;;5047736;28;20484;-66
2023/03/04 09:17:21;;;;;;;51.60;20.90;;;;;;;;;;5047772;28;20090;-66
2023/03/04 09:19:46;;;;;;;47.65;18.98;;;;;;;;;;5044719;28;20045;-67
2023/03/04 09:22:12;;;;;;;51.83;20.23;;;;;;;;;;5046867;28;20664;-66
2023/03/04 09:24:38;;;;;;;53.08;21.38;;;;;;;;;;5046650;28;20468;-66
2023/03/04 09:27:03;;;;;;;49.50;20.90;;;;;;;;;;5029700;28;20066;-66
2023/03/04 09:29:29;;;;;;;67.05;26.35;;;;;;;;;;5038983;28;20058;-66
2023/03/04 09:31:55;;;;;;;51.50;20.50;;;;;;;;;;5041074;28;20037;-67
2023/03/04 09:34:20;;;;;;;51.35;22.65;;;;;;;;;;5042626;28;20043;-66
2023/03/04 09:36:46;;;;;;;55.13;23.67;;;;;;;;;;5040184;28;20085;-65
2023/03/04 09:39:12;;;;;;;53.45;23.17;;;;;;;;;;5041165;28;20041;-66
2023/03/04 09:41:46;;;;;;;58.47;22.40;;;;;;;;;;5041892;28;20171;-65
2023/03/04 09:44:31;;;;;;;49.90;20.92;;;;;;;;;;5038595;28;20029;-65
2023/03/04 09:47:01;;;;;;;54.50;23.92;;;;;;;;;;5033932;28;20040;-66
2023/03/04 09:49:28;;;;;;;48.58;21.00;;;;;;;;;;5041940;28;20087;-66
2023/03/04 09:51:56;;;;;;;50.83;21.33;;;;;;;;;;5041839;28;20097;-67
2023/03/04 09:54:40;;;;;;;55.58;24.90;;;;;;;;;;5041535;28;20068;-65
2023/03/04 09:57:34;;;;;;;50.60;21.05;;;;;;;;;;5041383;28;20905;-67
2023/03/04 10:00:12;;;;;;;45.90;17.15;;;;;;;;;;5041236;28;20045;-66
2023/03/04 10:03:01;;;;;;;51.42;20.92;;;;;;;;;;5039923;28;20098;-66
2023/03/04 10:05:30;;;;;;;51.90;23.35;;;;;;;;;;5041194;28;20535;-66
2023/03/04 10:07:59;;;;;;;54.28;23.50;;;;;;;;;;5043947;28;20043;-65
2023/03/04 10:10:31;;;;;;;36.97;18.92;;;;;;;;;;5044049;28;20033;-64
2023/03/04 10:12:58;;;;;;;41.38;19.83;;;;;;;;;;5040775;28;20048;-67
2023/03/04 10:15:38;;;;;;;41.22;19.92;;;;;;;;;;5043112;28;20032;-65
2023/03/04 10:18:21;;;;;;;37.08;17.55;;;;;;;;;;5042371;28;20068;-65
2023/03/04 10:20:57;;;;;;;40.40;18.08;;;;;;;;;;5035211;28;20033;-65
2023/03/04 10:23:25;;;;;;;38.65;18.95;;;;;;;;;;5043787;28;20051;-66
2023/03/04 10:25:53;;;;;;;34.95;17.60;;;;;;;;;;5045439;28;20028;-67
2023/03/04 10:28:26;;;;;;;36.47;16.95;;;;;;;;;;5045939;28;21268;-66
2023/03/04 10:31:00;;;;;;;44.65;19.23;;;;;;;;;;5044803;28;20035;-68
2023/03/04 10:33:30;;;;;;;35.15;17.73;;;;;;;;;;5046984;28;20036;-68
2023/03/04 10:36:11;;;;;;;37.13;16.30;;;;;;;;;;5046489;28;20562;-68
2023/03/04 10:38:40;;;;;;;33.35;16.55;;;;;;;;;;5039786;28;20126;-67
2023/03/04 10:41:15;;;;;;;33.33;18.02;;;;;;;;;;5031533;28;20072;-65
2023/03/04 10:43:44;;;;;;;36.30;19.00;;;;;;;;;;5050944;28;20134;-66
2023/03/04 10:46:11;;;;;;;35.60;17.63;;;;;;;;;;5065289;28;20117;-67
2023/03/04 10:48:40;;;;;;;33.20;16.80;;;;;;;;;;5049260;28;20036;-65
2023/03/04 10:51:12;;;;;;;35.88;18.13;;;;;;;;;;5050722;28;20567;-67
2023/03/04 10:53:42;;;;;;;29.42;15.52;;;;;;;;;;5050138;28;20043;-65
2023/03/04 10:56:44;;;;;;;31.60;16.38;;;;;;;;;;5031863;28;20033;-65
2023/03/04 10:59:41;;;;;;;28.35;15.57;;;;;;;;;;5063202;28;20131;-65
2023/03/04 11:02:25;;;;;;;34.05;16.45;;;;;;;;;;5050799;28;20035;-66
2023/03/04 11:04:53;;;;;;;32.55;15.93;;;;;;;;;;5047087;28;20029;-67
2023/03/04 11:07:24;;;;;;;29.42;16.02;;;;;;;;;;5035270;28;20113;-67
2023/03/04 11:09:50;;;;;;;30.35;15.55;;;;;;;;;;5044385;28;20068;-67
2023/03/04 11:12:19;;;;;;;32.72;17.90;;;;;;;;;;5044589;28;20053;-67
2023/03/04 11:14:48;;;;;;;29.40;17.48;;;;;;;;;;5044868;28;20048;-67
2023/03/04 11:17:20;;;;;;;33.43;18.27;;;;;;;;;;5027507;28;20037;-67
2023/03/04 11:19:51;;;;;;;32.85;17.63;;;;;;;;;;5043272;28;20041;-66
2023/03/04 11:22:20;;;;;;;30.13;16.52;;;;;;;;;;5028345;28;20045;-67
2023/03/04 11:24:57;;;;;;;31.63;16.90;;;;;;;;;;5046589;28;20037;-67
2023/03/04 11:27:34;;;;;;;35.58;19.02;;;;;;;;;;5047335;28;20070;-68
2023/03/04 11:30:21;;;;;;;35.13;19.83;;;;;;;;;;5046673;28;20040;-67
2023/03/04 11:32:49;;;;;;;43.08;20.10;;;;;;;;;;5049001;28;20038;-67
2023/03/04 11:35:42;;;;;;;36.40;21.85;;;;;;;;;;5033111;28;20059;-66
2023/03/04 11:41:24;;;;;;;33.38;18.08;;;;;;;;;;5006096;28;20050;-72
2023/03/04 11:43:50;;;;;;;30.70;17.38;;;;;;;;;;5009726;28;20033;-68
2023/03/04 11:47:04;;;;;;;34.58;18.98;;;;;;;;;;5010569;28;20045;-70
2023/03/04 11:50:09;;;;;;;38.47;21.23;;;;;;;;;;4984515;28;20346;-72
2023/03/04 11:52:43;;;;;;;42.45;22.27;;;;;;;;;;4989495;28;20492;-69
2023/03/04 11:55:55;;;;;;;48.10;23.42;;;;;;;;;;5002013;28;20030;-70
2023/03/04 11:58:42;;;;;;;38.58;19.58;;;;;;;;;;4987035;28;20172;-69
2023/03/04 12:01:17;;;;;;;38.38;19.85;;;;;;;;;;4989779;28;20054;-70
2023/03/04 12:04:04;;;;;;;40.22;20.00;;;;;;;;;;4987881;28;20049;-69
2023/03/04 12:06:48;;;;;;;43.22;21.98;;;;;;;;;;4989948;28;20121;-70
2023/03/04 12:09:41;;;;;;;46.28;24.17;;;;;;;;;;4972170;28;20061;-69
2023/03/04 12:12:19;;;;;;;40.97;22.02;;;;;;;;;;4993231;28;20739;-68
2023/03/04 12:15:02;;;;;;;44.97;24.00;;;;;;;;;;4988498;28;20061;-70
2023/03/04 12:18:04;;;;;;;40.33;21.90;;;;;;;;;;4985262;28;20034;-68
2023/03/04 12:20:32;;;;;;;45.28;24.63;;;;;;;;;;4990252;28;20072;-67
2023/03/04 12:23:18;;;;;;;40.22;18.60;;;;;;;;;;4986635;28;20069;-67
2023/03/04 12:26:23;;;;;;;41.67;21.65;;;;;;;;;;4979623;28;20634;-69
2023/03/04 12:29:17;;;;;;;44.63;23.52;;;;;;;;;;4947634;28;20542;-69
2023/03/04 12:31:51;;;;;;;44.97;23.65;;;;;;;;;;4950888;28;20118;-71
2023/03/04 12:34:31;;;;;;;47.50;26.65;;;;;;;;;;4957596;28;20151;-70
2023/03/04 12:37:15;;;;;;;49.38;27.15;;;;;;;;;;4946220;28;20054;-70
2023/03/04 12:39:53;;;;;;;45.58;21.35;;;;;;;;;;4949279;28;20077;-68
2023/03/04 12:42:40;;;;;;;47.90;23.05;;;;;;;;;;4950565;28;20115;-69
2023/03/04 12:45:30;;;;;;;36.05;17.85;;;;;;;;;;4967588;28;20656;-74
2023/03/04 12:47:58;;;;;;;50.67;24.65;;;;;;;;;;4963445;28;20051;-71
2023/03/04 12:50:44;;;;;;;46.90;23.73;;;;;;;;;;4943442;28;20118;-68
2023/03/04 12:53:31;;;;;;;58.13;28.33;;;;;;;;;;4940375;28;20077;-69
2023/03/04 12:55:58;;;;;;;51.50;26.02;;;;;;;;;;4947805;28;20110;-68
2023/03/04 12:58:27;;;;;;;51.13;25.75;;;;;;;;;;4947571;28;20055;-69
2023/03/04 13:00:58;;;;;;;54.38;27.85;;;;;;;;;;4936412;28;20117;-68
2023/03/04 13:03:42;;;;;;;55.30;27.98;;;;;;;;;;4947840;28;20051;-70
2023/03/04 13:06:20;;;;;;;47.25;24.63;;;;;;;;;;4977928;28;20043;-70
2023/03/04 13:08:57;;;;;;;54.10;28.83;;;;;;;;;;5003327;28;20060;-68
2023/03/04 13:11:27;;;;;;;47.55;25.23;;;;;;;;;;4976088;28;20045;-67
2023/03/04 13:14:05;;;;;;;;;;;;;;;;;;5010570;28;20065;-70
2023/03/04 13:16:40;;;;;;;49.60;26.90;;;;;;;;;;5000280;28;19913;-68
2023/03/04 13:19:43;;;;;;;44.38;26.33;;;;;;;;;;5001477;28;20073;-69
2023/03/04 13:22:36;;;;;;;52.33;27.20;;;;;;;;;;5000443;28;20022;-69
2023/03/04 13:25:41;;;;;;;53.97;25.20;;;;;;;;;;4999160;28;20516;-69
2023/03/04 13:28:09;;;;;;;53.17;25.40;;;;;;;;;;5000768;28;20508;-68
2023/03/04 13:30:36;;;;;;;48.13;24.67;;;;;;;;;;4993218;28;20037;-72
2023/03/04 13:33:08;;;;;;;56.00;29.25;;;;;;;;;;5003987;28;20034;-68
2023/03/04 13:38:37;;;;;;;54.08;26.63;;;;;;;;;;4992510;28;20057;-71
2023/03/04 13:41:14;;;;;;;53.80;28.42;;;;;;;;;;4992517;28;20031;-68
2023/03/04 13:43:49;;;;;;;49.63;24.75;;;;;;;;;;4981395;28;20549;-68
2023/03/04 13:46:42;;;;;;;51.72;25.52;;;;;;;;;;4990495;28;20029;-70
2023/03/04 13:49:21;;;;;;;52.50;27.45;;;;;;;;;;4994849;28;20046;-71
2023/03/04 13:51:46;;;;;;;47.53;25.52;;;;;;;;;;4999287;28;20045;-74
2023/03/04 13:54:20;;;;;;;58.58;27.35;;;;;;;;;;5014038;28;20045;-71
2023/03/04 13:57:05;;;;;;;51.92;27.42;;;;;;;;;;5005575;28;20099;-70
2023/03/04 13:59:44;;;;;;;49.78;25.75;;;;;;;;;;4998740;28;20405;-69
2023/03/04 14:02:17;;;;;;;50.80;26.52;;;;;;;;;;4995286;28;20389;-68
2023/03/04 14:04:57;;;;;;;54.72;29.30;;;;;;;;;;4991771;28;20034;-70
2023/03/04 14:07:28;;;;;;;53.58;28.00;;;;;;;;;;5005785;28;20061;-71
2023/03/04 14:10:12;;;;;;;51.72;24.67;;;;;;;;;;5005437;28;20348;-69
2023/03/04 14:12:59;;;;;;;45.90;23.00;;;;;;;;;;5003290;28;20038;-69
2023/03/04 14:15:30;;;;;;;50.63;26.25;;;;;;;;;;5005963;28;20386;-69
2023/03/04 14:17:57;;;;;;;35.90;19.13;;;;;;;;;;5004501;28;20057;-69
2023/03/04 14:20:35;;;;;;;39.33;19.83;;;;;;;;;;5004754;28;20075;-70
2023/03/04 14:23:03;;;;;;;41.97;21.00;;;;;;;;;;5002743;28;20656;-69
2023/03/04 14:25:34;;;;;;;43.53;20.37;;;;;;;;;;5004607;28;20686;-70
2023/03/04 14:28:10;;;;;;;36.70;19.25;;;;;;;;;;5004072;28;20053;-69
2023/03/04 14:30:37;;;;;;;38.50;20.42;;;;;;;;;;5005464;28;20042;-69
2023/03/04 14:33:06;;;;;;;36.97;18.83;;;;;;;;;;5003952;28;20034;-69
2023/03/04 14:35:32;;;;;;;;;;;;;;;;;;5005766;28;20173;-70
2023/03/04 14:38:05;;;;;;;34.28;18.42;;;;;;;;;;5005467;28;20000;-72
2023/03/04 14:40:38;;;;;;;35.17;17.85;;;;;;;;;;5003771;28;20385;-67
2023/03/04 14:43:15;;;;;;;38.13;17.98;;;;;;;;;;5006135;28;20034;-70